sensor_id;sensor_type;location;lat;lon;timestamp;temperature;humidity
53264;DHT22;39153;52.680;6.172;2024-02-14T00:01:04;7.70;99.90
53264;DHT22;39153;52.680;6.172;2024-02-14T00:03:30;7.70;99.90
53264;DHT22;39153;52.680;6.172;2024-02-14T00:05:55;7.30;99.90
53264;DHT22;39153;52.680;6.172;2024-02-14T00:08:22;7.50;99.90
53264;DHT22;39153;52.680;6.172;2024-02-14T00:10:48;7.80;99.90
53264;DHT22;39153;52.680;6.172;2024-02-14T00:13:14;7.70;99.90
53264;DHT22;39153;52.680;6.172;2024-02-14T00:15:40;7.30;99.90
53264;DHT22;39153;52.680;6.172;2024-02-14T00:18:06;7.60;99.90
53264;DHT22;39153;52.680;6.172;2024-02-14T00:20:31;7.70;99.90
53264;DHT22;39153;52.680;6.172;2024-02-14T00:22:58;7.70;99.90
53264;DHT22;39153;52.680;6.172;2024-02-14T00:25:23;7.80;99.90
53264;DHT22;39153;52.680;6.172;2024-02-14T00:27:49;7.50;99.90
53264;DHT22;39153;52.680;6.172;2024-02-14T00:30:15;7.30;99.90
53264;DHT22;39153;52.680;6.172;2024-02-14T00:32:41;7.80;99.90
53264;DHT22;39153;52.680;6.172;2024-02-14T00:35:07;7.60;99.90
53264;DHT22;39153;52.680;6.172;2024-02-14T00:37:33;7.30;99.90
53264;DHT22;39153;52.680;6.172;2024-02-14T00:39:59;7.90;99.90
53264;DHT22;39153;52.680;6.172;2024-02-14T00:42:25;7.80;99.90
53264;DHT22;39153;52.680;6.172;2024-02-14T00:44:51;7.30;99.90
53264;DHT22;39153;52.680;6.172;2024-02-14T00:47:17;7.90;99.90
53264;DHT22;39153;52.680;6.172;2024-02-14T00:49:42;7.30;99.90
53264;DHT22;39153;52.680;6.172;2024-02-14T00:52:08;7.80;99.90
53264;DHT22;39153;52.680;6.172;2024-02-14T00:54:34;7.90;99.90
53264;DHT22;39153;52.680;6.172;2024-02-14T00:57:00;7.90;99.90
53264;DHT22;39153;52.680;6.172;2024-02-14T00:59:26;7.40;99.90
53264;DHT22;39153;52.680;6.172;2024-02-14T01:01:52;7.40;99.90
53264;DHT22;39153;52.680;6.172;2024-02-14T01:04:17;8.00;99.90
53264;DHT22;39153;52.680;6.172;2024-02-14T01:06:43;7.60;99.90
53264;DHT22;39153;52.680;6.172;2024-02-14T01:09:09;7.80;99.90
53264;DHT22;39153;52.680;6.172;2024-02-14T01:11:35;7.70;99.90
53264;DHT22;39153;52.680;6.172;2024-02-14T01:14:04;8.10;99.90
53264;DHT22;39153;52.680;6.172;2024-02-14T01:16:29;8.20;99.90
53264;DHT22;39153;52.680;6.172;2024-02-14T01:18:55;8.20;99.90
53264;DHT22;39153;52.680;6.172;2024-02-14T01:21:22;8.30;99.90
53264;DHT22;39153;52.680;6.172;2024-02-14T01:23:48;8.30;99.90
53264;DHT22;39153;52.680;6.172;2024-02-14T01:26:13;8.30;99.90
53264;DHT22;39153;52.680;6.172;2024-02-14T01:28:40;7.70;99.90
53264;DHT22;39153;52.680;6.172;2024-02-14T01:31:05;8.20;99.90
53264;DHT22;39153;52.680;6.172;2024-02-14T01:33:31;8.50;99.90
53264;DHT22;39153;52.680;6.172;2024-02-14T01:35:57;8.00;99.90
53264;DHT22;39153;52.680;6.172;2024-02-14T01:38:23;8.50;99.90
53264;DHT22;39153;52.680;6.172;2024-02-14T01:40:49;7.80;99.90
53264;DHT22;39153;52.680;6.172;2024-02-14T01:43:14;8.20;99.90
53264;DHT22;39153;52.680;6.172;2024-02-14T01:45:40;8.10;99.90
53264;DHT22;39153;52.680;6.172;2024-02-14T01:48:06;8.60;99.90
53264;DHT22;39153;52.680;6.172;2024-02-14T01:50:34;8.70;99.90
53264;DHT22;39153;52.680;6.172;2024-02-14T01:53:01;8.50;99.90
53264;DHT22;39153;52.680;6.172;2024-02-14T01:55:28;8.10;99.90
53264;DHT22;39153;52.680;6.172;2024-02-14T01:57:54;7.90;99.90
53264;DHT22;39153;52.680;6.172;2024-02-14T02:00:20;8.10;99.90
53264;DHT22;39153;52.680;6.172;2024-02-14T02:02:46;8.70;99.90
53264;DHT22;39153;52.680;6.172;2024-02-14T02:05:13;8.20;99.90
53264;DHT22;39153;52.680;6.172;2024-02-14T02:07:39;8.50;99.90
53264;DHT22;39153;52.680;6.172;2024-02-14T02:10:11;8.00;99.90
53264;DHT22;39153;52.680;6.172;2024-02-14T02:12:37;8.10;99.90
53264;DHT22;39153;52.680;6.172;2024-02-14T02:15:05;8.80;99.90
53264;DHT22;39153;52.680;6.172;2024-02-14T02:17:32;8.10;99.90
53264;DHT22;39153;52.680;6.172;2024-02-14T02:20:00;8.70;99.90
53264;DHT22;39153;52.680;6.172;2024-02-14T02:22:26;8.60;99.90
53264;DHT22;39153;52.680;6.172;2024-02-14T02:24:54;8.10;99.90
53264;DHT22;39153;52.680;6.172;2024-02-14T02:27:19;8.80;99.90
53264;DHT22;39153;52.680;6.172;2024-02-14T02:29:45;8.70;99.90
53264;DHT22;39153;52.680;6.172;2024-02-14T02:32:11;8.30;99.90
53264;DHT22;39153;52.680;6.172;2024-02-14T02:34:37;8.50;99.90
53264;DHT22;39153;52.680;6.172;2024-02-14T02:37:05;8.50;99.90
53264;DHT22;39153;52.680;6.172;2024-02-14T02:39:34;9.00;99.90
53264;DHT22;39153;52.680;6.172;2024-02-14T02:42:02;8.60;99.90
53264;DHT22;39153;52.680;6.172;2024-02-14T02:44:28;8.90;99.90
53264;DHT22;39153;52.680;6.172;2024-02-14T02:46:54;9.10;99.90
53264;DHT22;39153;52.680;6.172;2024-02-14T02:49:21;8.50;99.90
53264;DHT22;39153;52.680;6.172;2024-02-14T02:51:47;8.80;99.90
53264;DHT22;39153;52.680;6.172;2024-02-14T02:54:13;9.10;99.90
53264;DHT22;39153;52.680;6.172;2024-02-14T02:56:39;8.80;99.90
53264;DHT22;39153;52.680;6.172;2024-02-14T02:59:06;9.10;99.90
53264;DHT22;39153;52.680;6.172;2024-02-14T03:01:35;9.10;99.90
53264;DHT22;39153;52.680;6.172;2024-02-14T03:04:01;8.90;99.90
53264;DHT22;39153;52.680;6.172;2024-02-14T03:06:27;9.00;99.90
53264;DHT22;39153;52.680;6.172;2024-02-14T03:08:53;8.80;99.90
53264;DHT22;39153;52.680;6.172;2024-02-14T03:11:21;8.40;99.90
53264;DHT22;39153;52.680;6.172;2024-02-14T03:13:46;8.70;99.90
53264;DHT22;39153;52.680;6.172;2024-02-14T03:16:15;8.90;99.90
53264;DHT22;39153;52.680;6.172;2024-02-14T03:18:42;9.10;99.90
53264;DHT22;39153;52.680;6.172;2024-02-14T03:21:07;9.10;99.90
53264;DHT22;39153;52.680;6.172;2024-02-14T03:23:33;9.10;99.90
53264;DHT22;39153;52.680;6.172;2024-02-14T03:25:59;8.60;99.90
53264;DHT22;39153;52.680;6.172;2024-02-14T03:28:24;9.20;99.90
53264;DHT22;39153;52.680;6.172;2024-02-14T03:30:51;9.50;99.90
53264;DHT22;39153;52.680;6.172;2024-02-14T03:33:17;9.30;99.90
53264;DHT22;39153;52.680;6.172;2024-02-14T03:35:43;9.40;99.90
53264;DHT22;39153;52.680;6.172;2024-02-14T03:38:09;9.10;99.90
53264;DHT22;39153;52.680;6.172;2024-02-14T03:40:35;9.40;99.90
53264;DHT22;39153;52.680;6.172;2024-02-14T03:43:02;9.00;99.90
53264;DHT22;39153;52.680;6.172;2024-02-14T03:45:28;9.00;99.90
53264;DHT22;39153;52.680;6.172;2024-02-14T03:47:55;9.50;99.90
53264;DHT22;39153;52.680;6.172;2024-02-14T03:50:22;8.90;99.90
53264;DHT22;39153;52.680;6.172;2024-02-14T03:52:48;9.50;99.90
53264;DHT22;39153;52.680;6.172;2024-02-14T03:55:14;8.90;99.90
53264;DHT22;39153;52.680;6.172;2024-02-14T03:57:42;8.90;99.90
53264;DHT22;39153;52.680;6.172;2024-02-14T04:00:11;9.60;99.90
53264;DHT22;39153;52.680;6.172;2024-02-14T04:02:37;8.90;99.90
53264;DHT22;39153;52.680;6.172;2024-02-14T04:05:03;9.50;99.90
53264;DHT22;39153;52.680;6.172;2024-02-14T04:07:29;8.90;99.90
53264;DHT22;39153;52.680;6.172;2024-02-14T04:09:57;9.10;99.90
53264;DHT22;39153;52.680;6.172;2024-02-14T04:12:23;9.70;99.90
53264;DHT22;39153;52.680;6.172;2024-02-14T04:14:48;9.60;99.90
53264;DHT22;39153;52.680;6.172;2024-02-14T04:17:14;9.30;99.90
53264;DHT22;39153;52.680;6.172;2024-02-14T04:19:40;9.30;99.90
53264;DHT22;39153;52.680;6.172;2024-02-14T04:22:06;9.00;99.90
53264;DHT22;39153;52.680;6.172;2024-02-14T04:24:35;9.40;99.90
53264;DHT22;39153;52.680;6.172;2024-02-14T04:27:01;9.60;99.90
53264;DHT22;39153;52.680;6.172;2024-02-14T04:29:29;9.40;99.90
53264;DHT22;39153;52.680;6.172;2024-02-14T04:32:02;9.20;99.90
53264;DHT22;39153;52.680;6.172;2024-02-14T04:34:28;9.00;99.90
53264;DHT22;39153;52.680;6.172;2024-02-14T04:36:55;9.00;99.90
53264;DHT22;39153;52.680;6.172;2024-02-14T04:39:22;9.50;99.90
53264;DHT22;39153;52.680;6.172;2024-02-14T04:41:47;9.10;99.90
53264;DHT22;39153;52.680;6.172;2024-02-14T04:44:15;9.10;99.90
53264;DHT22;39153;52.680;6.172;2024-02-14T04:46:41;9.10;99.90
53264;DHT22;39153;52.680;6.172;2024-02-14T04:49:09;9.20;99.90
53264;DHT22;39153;52.680;6.172;2024-02-14T04:51:35;9.10;99.90
53264;DHT22;39153;52.680;6.172;2024-02-14T04:54:01;9.40;99.90
53264;DHT22;39153;52.680;6.172;2024-02-14T04:56:27;9.20;99.90
53264;DHT22;39153;52.680;6.172;2024-02-14T04:58:55;9.70;99.90
53264;DHT22;39153;52.680;6.172;2024-02-14T05:01:21;9.70;99.90
53264;DHT22;39153;52.680;6.172;2024-02-14T05:03:48;9.70;99.90
53264;DHT22;39153;52.680;6.172;2024-02-14T05:06:14;9.50;99.90
53264;DHT22;39153;52.680;6.172;2024-02-14T05:08:39;9.40;99.90
53264;DHT22;39153;52.680;6.172;2024-02-14T05:11:05;9.60;99.90
53264;DHT22;39153;52.680;6.172;2024-02-14T05:13:31;9.80;99.90
53264;DHT22;39153;52.680;6.172;2024-02-14T05:15:57;9.80;99.90
53264;DHT22;39153;52.680;6.172;2024-02-14T05:18:22;9.30;99.90
53264;DHT22;39153;52.680;6.172;2024-02-14T05:20:48;9.60;99.90
53264;DHT22;39153;52.680;6.172;2024-02-14T05:23:15;9.50;99.90
53264;DHT22;39153;52.680;6.172;2024-02-14T05:25:43;9.80;99.90
53264;DHT22;39153;52.680;6.172;2024-02-14T05:28:09;9.40;99.90
53264;DHT22;39153;52.680;6.172;2024-02-14T05:30:42;9.90;99.90
53264;DHT22;39153;52.680;6.172;2024-02-14T05:33:07;9.90;99.90
53264;DHT22;39153;52.680;6.172;2024-02-14T05:35:33;10.00;99.90
53264;DHT22;39153;52.680;6.172;2024-02-14T05:37:59;9.50;99.90
53264;DHT22;39153;52.680;6.172;2024-02-14T05:40:24;10.10;99.90
53264;DHT22;39153;52.680;6.172;2024-02-14T05:42:51;9.80;99.90
53264;DHT22;39153;52.680;6.172;2024-02-14T05:45:16;9.90;99.90
53264;DHT22;39153;52.680;6.172;2024-02-14T05:47:43;10.10;99.90
53264;DHT22;39153;52.680;6.172;2024-02-14T05:50:09;10.10;99.90
53264;DHT22;39153;52.680;6.172;2024-02-14T05:52:37;10.10;99.90
53264;DHT22;39153;52.680;6.172;2024-02-14T05:55:03;9.90;99.90
53264;DHT22;39153;52.680;6.172;2024-02-14T05:57:29;10.00;99.90
53264;DHT22;39153;52.680;6.172;2024-02-14T05:59:55;10.00;99.90
53264;DHT22;39153;52.680;6.172;2024-02-14T06:02:20;9.70;99.90
53264;DHT22;39153;52.680;6.172;2024-02-14T06:04:47;9.70;99.90
53264;DHT22;39153;52.680;6.172;2024-02-14T06:07:12;10.10;99.90
53264;DHT22;39153;52.680;6.172;2024-02-14T06:09:38;9.90;99.90
53264;DHT22;39153;52.680;6.172;2024-02-14T06:12:04;9.90;99.90
53264;DHT22;39153;52.680;6.172;2024-02-14T06:14:30;10.10;99.90
53264;DHT22;39153;52.680;6.172;2024-02-14T06:16:56;10.10;99.90
53264;DHT22;39153;52.680;6.172;2024-02-14T06:19:22;9.90;99.90
53264;DHT22;39153;52.680;6.172;2024-02-14T06:21:48;9.80;99.90
53264;DHT22;39153;52.680;6.172;2024-02-14T06:24:14;10.30;99.90
53264;DHT22;39153;52.680;6.172;2024-02-14T06:26:39;9.80;99.90
53264;DHT22;39153;52.680;6.172;2024-02-14T06:29:05;10.20;99.90
53264;DHT22;39153;52.680;6.172;2024-02-14T06:31:31;10.00;99.90
53264;DHT22;39153;52.680;6.172;2024-02-14T06:33:56;10.30;99.90
53264;DHT22;39153;52.680;6.172;2024-02-14T06:36:22;10.30;99.90
53264;DHT22;39153;52.680;6.172;2024-02-14T06:38:48;10.00;99.90
53264;DHT22;39153;52.680;6.172;2024-02-14T06:41:14;10.50;99.90
53264;DHT22;39153;52.680;6.172;2024-02-14T06:43:40;10.30;99.90
53264;DHT22;39153;52.680;6.172;2024-02-14T06:46:06;10.20;99.90
53264;DHT22;39153;52.680;6.172;2024-02-14T06:48:31;10.00;99.90
53264;DHT22;39153;52.680;6.172;2024-02-14T06:50:57;10.30;99.90
53264;DHT22;39153;52.680;6.172;2024-02-14T06:53:23;10.40;99.90
53264;DHT22;39153;52.680;6.172;2024-02-14T06:55:49;10.30;99.90
53264;DHT22;39153;52.680;6.172;2024-02-14T06:58:14;9.90;99.90
53264;DHT22;39153;52.680;6.172;2024-02-14T07:00:40;10.10;99.90
53264;DHT22;39153;52.680;6.172;2024-02-14T07:03:05;9.90;99.90
53264;DHT22;39153;52.680;6.172;2024-02-14T07:05:31;10.30;99.90
53264;DHT22;39153;52.680;6.172;2024-02-14T07:07:57;9.90;99.90
53264;DHT22;39153;52.680;6.172;2024-02-14T07:10:23;9.90;99.90
53264;DHT22;39153;52.680;6.172;2024-02-14T07:12:48;10.30;99.90
53264;DHT22;39153;52.680;6.172;2024-02-14T07:15:14;10.40;99.90
53264;DHT22;39153;52.680;6.172;2024-02-14T07:17:40;10.30;99.90
53264;DHT22;39153;52.680;6.172;2024-02-14T07:20:06;9.90;99.90
53264;DHT22;39153;52.680;6.172;2024-02-14T07:22:35;10.00;99.90
53264;DHT22;39153;52.680;6.172;2024-02-14T07:25:01;10.00;99.90
53264;DHT22;39153;52.680;6.172;2024-02-14T07:27:27;10.30;99.90
53264;DHT22;39153;52.680;6.172;2024-02-14T07:29:52;10.30;99.90
53264;DHT22;39153;52.680;6.172;2024-02-14T07:32:18;9.90;99.90
53264;DHT22;39153;52.680;6.172;2024-02-14T07:34:44;9.80;99.90
53264;DHT22;39153;52.680;6.172;2024-02-14T07:37:10;10.20;99.90
53264;DHT22;39153;52.680;6.172;2024-02-14T07:39:35;9.90;99.90
53264;DHT22;39153;52.680;6.172;2024-02-14T07:42:02;10.20;99.90
53264;DHT22;39153;52.680;6.172;2024-02-14T07:44:28;9.90;99.90
53264;DHT22;39153;52.680;6.172;2024-02-14T07:46:54;10.10;99.90
53264;DHT22;39153;52.680;6.172;2024-02-14T07:49:19;10.30;99.90
53264;DHT22;39153;52.680;6.172;2024-02-14T07:51:46;10.20;99.90
53264;DHT22;39153;52.680;6.172;2024-02-14T07:54:11;10.50;99.90
53264;DHT22;39153;52.680;6.172;2024-02-14T07:56:37;10.50;99.90
53264;DHT22;39153;52.680;6.172;2024-02-14T07:59:03;10.00;99.90
53264;DHT22;39153;52.680;6.172;2024-02-14T08:01:30;10.20;99.90
53264;DHT22;39153;52.680;6.172;2024-02-14T08:03:58;10.00;99.90
53264;DHT22;39153;52.680;6.172;2024-02-14T08:06:23;10.00;99.90
53264;DHT22;39153;52.680;6.172;2024-02-14T08:08:49;10.00;99.90
53264;DHT22;39153;52.680;6.172;2024-02-14T08:11:19;10.50;99.90
53264;DHT22;39153;52.680;6.172;2024-02-14T08:13:45;10.50;99.90
53264;DHT22;39153;52.680;6.172;2024-02-14T08:16:11;10.10;99.90
53264;DHT22;39153;52.680;6.172;2024-02-14T08:18:37;10.60;99.90
53264;DHT22;39153;52.680;6.172;2024-02-14T08:21:05;10.20;99.90
53264;DHT22;39153;52.680;6.172;2024-02-14T08:23:32;10.50;99.90
53264;DHT22;39153;52.680;6.172;2024-02-14T08:25:57;10.30;99.90
53264;DHT22;39153;52.680;6.172;2024-02-14T08:28:23;10.20;99.90
53264;DHT22;39153;52.680;6.172;2024-02-14T08:30:49;10.30;99.90
53264;DHT22;39153;52.680;6.172;2024-02-14T08:33:14;10.30;99.90
53264;DHT22;39153;52.680;6.172;2024-02-14T08:35:40;10.10;99.90
53264;DHT22;39153;52.680;6.172;2024-02-14T08:38:06;10.60;99.90
53264;DHT22;39153;52.680;6.172;2024-02-14T08:40:32;10.10;99.90
53264;DHT22;39153;52.680;6.172;2024-02-14T08:42:58;10.60;99.90
53264;DHT22;39153;52.680;6.172;2024-02-14T08:45:24;10.10;99.90
53264;DHT22;39153;52.680;6.172;2024-02-14T08:47:51;10.30;99.90
53264;DHT22;39153;52.680;6.172;2024-02-14T08:50:16;10.20;99.90
53264;DHT22;39153;52.680;6.172;2024-02-14T08:52:42;10.60;99.90
53264;DHT22;39153;52.680;6.172;2024-02-14T08:55:08;10.50;99.90
53264;DHT22;39153;52.680;6.172;2024-02-14T08:57:40;10.40;99.90
53264;DHT22;39153;52.680;6.172;2024-02-14T09:00:07;10.20;99.90
53264;DHT22;39153;52.680;6.172;2024-02-14T09:02:33;10.30;99.90
53264;DHT22;39153;52.680;6.172;2024-02-14T09:05:00;10.70;99.90
53264;DHT22;39153;52.680;6.172;2024-02-14T09:07:27;10.20;99.90
53264;DHT22;39153;52.680;6.172;2024-02-14T09:09:52;10.30;99.90
53264;DHT22;39153;52.680;6.172;2024-02-14T09:12:18;10.70;99.90
53264;DHT22;39153;52.680;6.172;2024-02-14T09:14:44;10.30;99.90
53264;DHT22;39153;52.680;6.172;2024-02-14T09:17:09;10.30;99.90
53264;DHT22;39153;52.680;6.172;2024-02-14T09:19:35;10.30;99.90
53264;DHT22;39153;52.680;6.172;2024-02-14T09:22:02;10.80;99.90
53264;DHT22;39153;52.680;6.172;2024-02-14T09:24:32;10.80;99.90
53264;DHT22;39153;52.680;6.172;2024-02-14T09:26:58;10.80;99.90
53264;DHT22;39153;52.680;6.172;2024-02-14T09:29:24;10.40;99.90
53264;DHT22;39153;52.680;6.172;2024-02-14T09:31:51;10.80;99.90
53264;DHT22;39153;52.680;6.172;2024-02-14T09:34:17;10.90;99.90
53264;DHT22;39153;52.680;6.172;2024-02-14T09:36:45;11.00;99.90
53264;DHT22;39153;52.680;6.172;2024-02-14T09:39:14;11.10;99.90
53264;DHT22;39153;52.680;6.172;2024-02-14T09:41:44;10.60;99.90
53264;DHT22;39153;52.680;6.172;2024-02-14T09:44:12;10.60;99.90
53264;DHT22;39153;52.680;6.172;2024-02-14T09:46:38;11.10;99.90
53264;DHT22;39153;52.680;6.172;2024-02-14T09:49:06;11.00;99.90
53264;DHT22;39153;52.680;6.172;2024-02-14T09:51:31;10.60;99.90
53264;DHT22;39153;52.680;6.172;2024-02-14T09:54:00;10.90;99.90
53264;DHT22;39153;52.680;6.172;2024-02-14T09:56:26;10.90;99.90
53264;DHT22;39153;52.680;6.172;2024-02-14T09:58:53;10.90;99.90
53264;DHT22;39153;52.680;6.172;2024-02-14T10:01:23;11.20;99.90
53264;DHT22;39153;52.680;6.172;2024-02-14T10:03:50;11.20;99.90
53264;DHT22;39153;52.680;6.172;2024-02-14T10:06:17;11.00;99.90
53264;DHT22;39153;52.680;6.172;2024-02-14T10:08:46;11.00;99.90
53264;DHT22;39153;52.680;6.172;2024-02-14T10:11:13;11.00;99.90
53264;DHT22;39153;52.680;6.172;2024-02-14T10:13:40;11.10;99.90
53264;DHT22;39153;52.680;6.172;2024-02-14T10:16:06;10.70;99.90
53264;DHT22;39153;52.680;6.172;2024-02-14T10:18:34;11.20;99.90
53264;DHT22;39153;52.680;6.172;2024-02-14T10:21:00;10.70;99.90
53264;DHT22;39153;52.680;6.172;2024-02-14T10:23:27;11.20;99.90
53264;DHT22;39153;52.680;6.172;2024-02-14T10:25:53;11.20;99.90
53264;DHT22;39153;52.680;6.172;2024-02-14T10:28:22;10.80;99.90
53264;DHT22;39153;52.680;6.172;2024-02-14T10:30:48;11.10;99.90
53264;DHT22;39153;52.680;6.172;2024-02-14T10:33:15;10.90;99.90
53264;DHT22;39153;52.680;6.172;2024-02-14T10:35:42;10.20;99.90
53264;DHT22;39153;52.680;6.172;2024-02-14T10:38:09;10.90;99.90
53264;DHT22;39153;52.680;6.172;2024-02-14T10:40:36;10.90;99.90
53264;DHT22;39153;52.680;6.172;2024-02-14T10:43:08;10.90;99.90
53264;DHT22;39153;52.680;6.172;2024-02-14T10:45:37;10.90;99.90
53264;DHT22;39153;52.680;6.172;2024-02-14T10:48:04;11.30;99.90
53264;DHT22;39153;52.680;6.172;2024-02-14T10:50:34;11.00;99.90
53264;DHT22;39153;52.680;6.172;2024-02-14T10:53:06;11.00;99.90
53264;DHT22;39153;52.680;6.172;2024-02-14T10:55:38;11.30;99.90
53264;DHT22;39153;52.680;6.172;2024-02-14T10:58:06;11.20;99.90
53264;DHT22;39153;52.680;6.172;2024-02-14T11:00:33;11.10;99.90
53264;DHT22;39153;52.680;6.172;2024-02-14T11:02:59;11.60;99.90
53264;DHT22;39153;52.680;6.172;2024-02-14T11:05:26;11.40;99.90
53264;DHT22;39153;52.680;6.172;2024-02-14T11:07:52;11.70;99.90
53264;DHT22;39153;52.680;6.172;2024-02-14T11:10:19;11.40;99.90
53264;DHT22;39153;52.680;6.172;2024-02-14T11:12:47;11.60;99.90
53264;DHT22;39153;52.680;6.172;2024-02-14T11:15:20;11.30;99.90
53264;DHT22;39153;52.680;6.172;2024-02-14T11:17:46;11.50;99.90
53264;DHT22;39153;52.680;6.172;2024-02-14T11:20:21;11.20;99.90
53264;DHT22;39153;52.680;6.172;2024-02-14T11:23:02;11.60;99.90
53264;DHT22;39153;52.680;6.172;2024-02-14T11:25:38;11.30;99.90
53264;DHT22;39153;52.680;6.172;2024-02-14T11:30:40;11.40;99.90
53264;DHT22;39153;52.680;6.172;2024-02-14T11:33:16;11.40;99.90
53264;DHT22;39153;52.680;6.172;2024-02-14T11:35:45;12.10;99.90
53264;DHT22;39153;52.680;6.172;2024-02-14T11:38:11;11.40;99.90
53264;DHT22;39153;52.680;6.172;2024-02-14T11:40:37;11.80;99.90
53264;DHT22;39153;52.680;6.172;2024-02-14T11:43:19;11.90;99.90
53264;DHT22;39153;52.680;6.172;2024-02-14T11:45:48;12.00;99.90
53264;DHT22;39153;52.680;6.172;2024-02-14T11:48:18;11.70;99.90
53264;DHT22;39153;52.680;6.172;2024-02-14T11:50:46;11.80;99.90
53264;DHT22;39153;52.680;6.172;2024-02-14T11:53:13;11.60;99.90
53264;DHT22;39153;52.680;6.172;2024-02-14T11:55:42;11.50;99.90
53264;DHT22;39153;52.680;6.172;2024-02-14T11:58:11;11.60;99.90
53264;DHT22;39153;52.680;6.172;2024-02-14T12:00:40;11.90;99.90
53264;DHT22;39153;52.680;6.172;2024-02-14T12:03:08;11.40;99.90
53264;DHT22;39153;52.680;6.172;2024-02-14T12:05:35;11.90;99.90
53264;DHT22;39153;52.680;6.172;2024-02-14T12:08:03;11.40;99.90
53264;DHT22;39153;52.680;6.172;2024-02-14T12:10:31;11.70;99.90
53264;DHT22;39153;52.680;6.172;2024-02-14T12:12:58;12.00;99.90
53264;DHT22;39153;52.680;6.172;2024-02-14T12:15:26;11.90;99.90
53264;DHT22;39153;52.680;6.172;2024-02-14T12:17:54;11.40;99.90
53264;DHT22;39153;52.680;6.172;2024-02-14T12:20:22;11.40;99.90
53264;DHT22;39153;52.680;6.172;2024-02-14T12:22:51;11.50;99.90
53264;DHT22;39153;52.680;6.172;2024-02-14T12:25:17;11.60;99.90
53264;DHT22;39153;52.680;6.172;2024-02-14T12:27:50;11.90;99.90
53264;DHT22;39153;52.680;6.172;2024-02-14T12:30:17;12.00;99.90
53264;DHT22;39153;52.680;6.172;2024-02-14T12:32:43;11.40;99.90
53264;DHT22;39153;52.680;6.172;2024-02-14T12:35:09;12.00;99.90
53264;DHT22;39153;52.680;6.172;2024-02-14T12:37:35;11.50;99.90
53264;DHT22;39153;52.680;6.172;2024-02-14T12:40:01;11.50;99.90
53264;DHT22;39153;52.680;6.172;2024-02-14T12:42:27;11.40;99.90
53264;DHT22;39153;52.680;6.172;2024-02-14T12:44:54;11.90;99.90
53264;DHT22;39153;52.680;6.172;2024-02-14T12:47:21;11.80;99.90
53264;DHT22;39153;52.680;6.172;2024-02-14T12:49:48;11.80;99.90
53264;DHT22;39153;52.680;6.172;2024-02-14T12:52:14;11.60;99.90
53264;DHT22;39153;52.680;6.172;2024-02-14T12:54:40;11.80;99.90
53264;DHT22;39153;52.680;6.172;2024-02-14T12:57:06;11.60;99.90
53264;DHT22;39153;52.680;6.172;2024-02-14T12:59:32;11.80;99.90
53264;DHT22;39153;52.680;6.172;2024-02-14T13:01:58;12.20;99.90
53264;DHT22;39153;52.680;6.172;2024-02-14T13:04:23;12.00;99.90
53264;DHT22;39153;52.680;6.172;2024-02-14T13:06:49;11.90;99.90
53264;DHT22;39153;52.680;6.172;2024-02-14T13:09:15;12.20;99.90
53264;DHT22;39153;52.680;6.172;2024-02-14T13:11:41;11.60;99.90
53264;DHT22;39153;52.680;6.172;2024-02-14T13:14:08;12.20;99.90
53264;DHT22;39153;52.680;6.172;2024-02-14T13:16:34;11.80;99.90
53264;DHT22;39153;52.680;6.172;2024-02-14T13:19:00;12.10;99.90
53264;DHT22;39153;52.680;6.172;2024-02-14T13:21:26;12.00;99.90
53264;DHT22;39153;52.680;6.172;2024-02-14T13:23:52;12.10;99.90
53264;DHT22;39153;52.680;6.172;2024-02-14T13:26:17;11.60;99.90
53264;DHT22;39153;52.680;6.172;2024-02-14T13:28:43;12.10;99.90
53264;DHT22;39153;52.680;6.172;2024-02-14T13:31:09;11.50;99.90
53264;DHT22;39153;52.680;6.172;2024-02-14T13:33:36;12.00;99.90
53264;DHT22;39153;52.680;6.172;2024-02-14T13:36:01;12.00;99.90
53264;DHT22;39153;52.680;6.172;2024-02-14T13:38:27;12.00;99.90
53264;DHT22;39153;52.680;6.172;2024-02-14T13:40:54;12.00;99.90
53264;DHT22;39153;52.680;6.172;2024-02-14T13:43:20;11.70;99.90
53264;DHT22;39153;52.680;6.172;2024-02-14T13:45:46;12.20;99.90
53264;DHT22;39153;52.680;6.172;2024-02-14T13:48:13;11.80;99.90
53264;DHT22;39153;52.680;6.172;2024-02-14T13:50:39;12.10;99.90
53264;DHT22;39153;52.680;6.172;2024-02-14T13:53:06;12.00;99.90
53264;DHT22;39153;52.680;6.172;2024-02-14T13:55:32;11.90;99.90
53264;DHT22;39153;52.680;6.172;2024-02-14T13:57:57;11.90;99.90
53264;DHT22;39153;52.680;6.172;2024-02-14T14:00:23;12.00;99.90
53264;DHT22;39153;52.680;6.172;2024-02-14T14:02:49;12.20;99.90
53264;DHT22;39153;52.680;6.172;2024-02-14T14:05:15;12.00;99.90
53264;DHT22;39153;52.680;6.172;2024-02-14T14:07:41;11.60;99.90
53264;DHT22;39153;52.680;6.172;2024-02-14T14:10:10;12.10;99.90
53264;DHT22;39153;52.680;6.172;2024-02-14T14:12:36;11.60;99.90
53264;DHT22;39153;52.680;6.172;2024-02-14T14:15:02;11.80;99.90
53264;DHT22;39153;52.680;6.172;2024-02-14T14:17:28;12.10;99.90
53264;DHT22;39153;52.680;6.172;2024-02-14T14:19:54;12.10;99.90
53264;DHT22;39153;52.680;6.172;2024-02-14T14:22:20;12.10;99.90
53264;DHT22;39153;52.680;6.172;2024-02-14T14:24:46;11.60;99.90
53264;DHT22;39153;52.680;6.172;2024-02-14T14:27:12;11.70;99.90
53264;DHT22;39153;52.680;6.172;2024-02-14T14:29:43;12.20;99.90
53264;DHT22;39153;52.680;6.172;2024-02-14T14:32:09;11.70;99.90
53264;DHT22;39153;52.680;6.172;2024-02-14T14:34:35;11.70;99.90
53264;DHT22;39153;52.680;6.172;2024-02-14T14:37:02;12.20;99.90
53264;DHT22;39153;52.680;6.172;2024-02-14T14:39:28;12.20;99.90
53264;DHT22;39153;52.680;6.172;2024-02-14T14:41:54;12.30;99.90
53264;DHT22;39153;52.680;6.172;2024-02-14T14:44:26;12.10;99.90
53264;DHT22;39153;52.680;6.172;2024-02-14T14:46:53;12.20;99.90
53264;DHT22;39153;52.680;6.172;2024-02-14T14:49:18;12.20;99.90
53264;DHT22;39153;52.680;6.172;2024-02-14T14:51:44;11.70;99.90
53264;DHT22;39153;52.680;6.172;2024-02-14T14:54:10;11.70;99.90
53264;DHT22;39153;52.680;6.172;2024-02-14T14:56:36;12.20;99.90
53264;DHT22;39153;52.680;6.172;2024-02-14T14:59:02;12.30;99.90
53264;DHT22;39153;52.680;6.172;2024-02-14T15:01:32;11.70;99.90
53264;DHT22;39153;52.680;6.172;2024-02-14T15:04:02;11.90;99.90
53264;DHT22;39153;52.680;6.172;2024-02-14T15:06:28;12.30;99.90
53264;DHT22;39153;52.680;6.172;2024-02-14T15:08:54;11.80;99.90
53264;DHT22;39153;52.680;6.172;2024-02-14T15:11:19;11.80;99.90
53264;DHT22;39153;52.680;6.172;2024-02-14T15:13:47;12.00;99.90
53264;DHT22;39153;52.680;6.172;2024-02-14T15:16:13;11.70;99.90
53264;DHT22;39153;52.680;6.172;2024-02-14T15:18:39;11.90;99.90
53264;DHT22;39153;52.680;6.172;2024-02-14T15:21:07;11.80;99.90
53264;DHT22;39153;52.680;6.172;2024-02-14T15:23:33;12.00;99.90
53264;DHT22;39153;52.680;6.172;2024-02-14T15:25:58;11.80;99.90
53264;DHT22;39153;52.680;6.172;2024-02-14T15:28:32;11.80;99.90
53264;DHT22;39153;52.680;6.172;2024-02-14T15:31:08;11.90;99.90
53264;DHT22;39153;52.680;6.172;2024-02-14T15:33:53;12.40;99.90
53264;DHT22;39153;52.680;6.172;2024-02-14T15:36:21;11.70;99.90